createdAt,value
2022-08-10T00:01:15.773Z,24.00
2022-08-10T00:04:02.785Z,24.00
2022-08-10T00:06:42.705Z,23.90
2022-08-10T00:09:30.778Z,23.90
2022-08-10T00:12:11.718Z,23.90
2022-08-10T00:14:52.282Z,23.80
2022-08-10T00:17:38.734Z,23.80
2022-08-10T00:20:19.242Z,23.80
2022-08-10T00:23:05.729Z,23.80
2022-08-10T00:25:46.300Z,23.80
2022-08-10T00:28:32.746Z,23.70
2022-08-10T00:31:19.723Z,23.70
2022-08-10T00:33:59.754Z,23.70
2022-08-10T00:36:46.721Z,23.70
2022-08-10T00:39:36.284Z,23.60
2022-08-10T00:42:23.778Z,23.60
2022-08-10T00:45:03.721Z,23.60
2022-08-10T00:47:44.213Z,23.60
2022-08-10T00:50:30.743Z,23.50
2022-08-10T00:53:17.763Z,23.50
2022-08-10T00:57:12.393Z,23.50
2022-08-10T00:59:04.769Z,23.50
2022-08-10T01:02:09.205Z,23.50
2022-08-10T01:05:00.194Z,23.40
2022-08-10T01:08:11.735Z,23.40
2022-08-10T01:12:38.258Z,23.40
2022-08-10T01:14:19.742Z,23.40
2022-08-10T01:17:49.962Z,23.40
2022-08-10T01:20:44.792Z,23.30
2022-08-10T01:23:48.732Z,23.30
2022-08-10T01:27:03.783Z,23.30
2022-08-10T01:30:01.733Z,23.30
2022-08-10T01:33:07.794Z,23.30
2022-08-10T01:36:02.735Z,23.30
2022-08-10T01:38:56.715Z,23.20
2022-08-10T01:41:47.729Z,23.20
2022-08-10T01:44:53.735Z,23.20
2022-08-10T01:48:04.507Z,23.20
2022-08-10T01:51:00.775Z,23.20
2022-08-10T01:53:56.825Z,23.20
2022-08-10T01:56:42.730Z,23.20
2022-08-10T01:59:31.987Z,23.10
2022-08-10T02:02:22.723Z,23.10
2022-08-10T02:05:11.711Z,23.10
2022-08-10T02:08:01.734Z,23.00
2022-08-10T02:10:51.709Z,23.00
2022-08-10T02:13:33.798Z,23.00
2022-08-10T02:16:21.732Z,23.00
2022-08-10T02:19:03.793Z,23.00
2022-08-10T02:22:37.037Z,23.00
2022-08-10T02:24:53.791Z,22.90
2022-08-10T02:27:41.742Z,22.90
2022-08-10T02:30:22.980Z,22.90
2022-08-10T02:33:10.743Z,22.90
2022-08-10T02:35:55.819Z,22.90
2022-08-10T02:38:58.092Z,22.80
2022-08-10T02:45:14.710Z,22.80
2022-08-10T02:45:26.379Z,22.80
2022-08-10T02:48:11.788Z,22.80
2022-08-10T02:51:06.769Z,22.80
2022-08-10T02:54:02.161Z,22.70
2022-08-10T02:56:56.753Z,22.70
2022-08-10T02:59:43.790Z,22.70
2022-08-10T03:02:45.731Z,22.70
2022-08-10T03:05:33.806Z,22.70
2022-08-10T03:08:16.737Z,22.70
2022-08-10T03:11:08.854Z,22.70
2022-08-10T03:13:59.843Z,22.70
2022-08-10T03:16:42.386Z,22.60
2022-08-10T03:20:34.505Z,22.60
2022-08-10T03:22:37.862Z,22.60
2022-08-10T03:25:19.749Z,22.60
2022-08-10T03:28:07.846Z,22.60
2022-08-10T03:30:48.760Z,22.50
2022-08-10T03:33:39.813Z,22.60
2022-08-10T03:36:43.621Z,22.50
2022-08-10T03:39:26.780Z,22.50
2022-08-10T03:42:16.733Z,22.50
2022-08-10T03:45:05.756Z,22.50
2022-08-10T03:47:48.826Z,22.50
2022-08-10T03:50:50.866Z,22.50
2022-08-10T03:54:05.319Z,22.50
2022-08-10T03:56:46.763Z,22.50
2022-08-10T03:59:28.018Z,22.50
2022-08-10T04:02:44.494Z,22.50
2022-08-10T04:05:38.235Z,22.50
2022-08-10T04:08:20.739Z,22.50
2022-08-10T04:11:07.793Z,22.40
2022-08-10T04:13:47.741Z,22.40
2022-08-10T04:16:34.809Z,22.40
2022-08-10T04:19:15.763Z,22.40
2022-08-10T04:22:10.826Z,22.40
2022-08-10T04:24:53.754Z,22.30
2022-08-10T04:27:34.477Z,22.30
2022-08-10T04:30:21.758Z,22.30
2022-08-10T04:33:04.434Z,22.30
2022-08-10T04:35:51.750Z,22.30
2022-08-10T04:38:41.798Z,22.30
2022-08-10T04:41:29.759Z,22.30
2022-08-10T04:44:10.268Z,22.20
2022-08-10T04:46:59.209Z,22.30
2022-08-10T04:49:56.189Z,22.30
2022-08-10T04:52:37.007Z,22.30
2022-08-10T04:55:24.767Z,22.20
2022-08-10T04:58:04.822Z,22.20
2022-08-10T05:00:51.815Z,22.20
2022-08-10T05:04:34.789Z,22.20
2022-08-10T05:06:52.746Z,22.20
2022-08-10T05:09:32.918Z,22.20
2022-08-10T05:12:19.776Z,22.20
2022-08-10T05:14:59.825Z,22.20
2022-08-10T05:18:08.193Z,22.20
2022-08-10T05:20:54.786Z,22.20
2022-08-10T05:23:41.802Z,22.20
2022-08-10T05:26:21.746Z,22.20
2022-08-10T05:29:08.759Z,22.20
2022-08-10T05:31:48.817Z,22.30
2022-08-10T05:34:36.773Z,22.30
2022-08-10T05:38:12.505Z,22.30
2022-08-10T05:40:25.774Z,22.30
2022-08-10T05:43:05.986Z,22.30
2022-08-10T05:46:17.626Z,22.30
2022-08-10T05:48:59.312Z,22.30
2022-08-10T05:51:46.753Z,22.30
2022-08-10T05:54:27.974Z,22.40
2022-08-10T05:57:14.760Z,22.40
2022-08-10T06:00:34.142Z,22.40
2022-08-10T06:03:13.750Z,22.40
2022-08-10T06:06:01.783Z,22.50
2022-08-10T06:08:51.773Z,22.50
2022-08-10T06:12:28.588Z,22.50
2022-08-10T06:15:05.120Z,22.60
2022-08-10T06:17:46.757Z,22.60
2022-08-10T06:20:49.828Z,22.60
2022-08-10T06:23:31.768Z,22.70
2022-08-10T06:26:14.854Z,22.70
2022-08-10T06:29:19.764Z,22.70
2022-08-10T06:32:02.633Z,22.80
2022-08-10T06:34:53.770Z,22.80
2022-08-10T06:37:42.829Z,22.80
2022-08-10T06:40:45.783Z,22.90
2022-08-10T06:43:27.461Z,22.90
2022-08-10T06:46:25.781Z,23.00
2022-08-10T06:49:07.097Z,23.00
2022-08-10T06:51:56.929Z,23.10
2022-08-10T06:54:45.774Z,23.20
2022-08-10T06:57:37.830Z,23.20
2022-08-10T07:00:20.395Z,23.30
2022-08-10T07:03:11.777Z,23.30
2022-08-10T07:05:59.834Z,23.30
2022-08-10T07:08:42.769Z,23.40
2022-08-10T07:11:30.825Z,23.60
2022-08-10T07:14:15.567Z,23.70
2022-08-10T07:16:59.461Z,23.80
2022-08-10T07:19:50.022Z,24.00
2022-08-10T07:23:01.206Z,24.10
2022-08-10T07:25:42.930Z,24.30
2022-08-10T07:28:30.779Z,24.50
2022-08-10T07:31:54.534Z,24.90
2022-08-10T07:34:29.898Z,25.30
2022-08-10T07:37:13.835Z,25.90
2022-08-10T07:40:04.363Z,26.40
2022-08-10T07:42:46.932Z,26.90
2022-08-10T07:45:37.788Z,27.30
2022-08-10T07:48:29.839Z,27.60
2022-08-10T07:51:17.783Z,27.90
2022-08-10T07:54:02.258Z,28.10
2022-08-10T07:56:52.787Z,28.40
2022-08-10T07:59:50.838Z,28.50
2022-08-10T08:03:07.769Z,28.60
2022-08-10T08:05:57.982Z,28.70
2022-08-10T08:08:52.782Z,29.00
2022-08-10T08:11:41.816Z,29.20
2022-08-10T08:14:22.911Z,29.40
2022-08-10T08:17:09.800Z,29.60
2022-08-10T08:19:59.788Z,29.70
2022-08-10T08:24:15.032Z,29.90
2022-08-10T08:25:51.798Z,30.00
2022-08-10T08:28:40.838Z,30.10
2022-08-10T08:31:22.814Z,30.10
2022-08-10T08:34:05.313Z,30.20
2022-08-10T08:36:59.244Z,30.20
2022-08-10T08:39:47.847Z,30.30
2022-08-10T08:42:37.983Z,30.30
2022-08-10T08:46:00.356Z,30.40
2022-08-10T08:50:05.515Z,30.50
2022-08-10T08:53:00.824Z,30.50
2022-08-10T08:56:09.816Z,30.60
2022-08-10T08:59:19.041Z,30.70
2022-08-10T09:02:29.827Z,30.70
2022-08-10T09:05:59.950Z,30.70
2022-08-10T09:09:17.807Z,30.70
2022-08-10T09:12:26.884Z,30.70
2022-08-10T09:15:39.957Z,30.70
2022-08-10T09:18:36.725Z,30.70
2022-08-10T09:21:32.824Z,30.80
2022-08-10T09:24:20.190Z,30.80
2022-08-10T09:27:11.786Z,30.80
2022-08-10T09:30:04.918Z,30.90
2022-08-10T09:36:29.649Z,30.90
2022-08-10T09:36:33.338Z,31.00
2022-08-10T09:40:06.691Z,31.00
2022-08-10T09:43:25.224Z,31.10
2022-08-10T09:46:16.919Z,31.00
2022-08-10T09:49:57.032Z,31.10
2022-08-10T09:52:45.865Z,31.00
2022-08-10T09:56:17.303Z,31.10
2022-08-10T10:00:00.364Z,31.10
2022-08-10T10:03:09.958Z,31.10
2022-08-10T10:06:13.806Z,31.20
2022-08-10T10:09:26.793Z,31.20
2022-08-10T10:12:20.942Z,31.10
2022-08-10T10:15:28.840Z,31.10
2022-08-10T10:18:33.820Z,31.10
2022-08-10T10:22:01.838Z,31.20
2022-08-10T10:25:21.012Z,31.20
2022-08-10T10:29:15.140Z,31.10
2022-08-10T10:31:55.825Z,31.10
2022-08-10T10:35:12.820Z,31.10
2022-08-10T10:38:03.539Z,31.00
2022-08-10T10:41:07.837Z,31.00
2022-08-10T10:44:09.741Z,30.90
2022-08-10T10:47:32.947Z,30.80
2022-08-10T10:50:20.952Z,30.80
2022-08-10T10:53:42.847Z,30.70
2022-08-10T10:56:50.970Z,30.70
2022-08-10T10:59:57.642Z,30.60
2022-08-10T11:03:16.822Z,30.60
2022-08-10T11:06:49.838Z,30.50
2022-08-10T11:10:05.401Z,30.50
2022-08-10T11:12:51.127Z,30.50
2022-08-10T11:15:47.892Z,30.50
2022-08-10T11:18:39.851Z,30.40
2022-08-10T11:21:45.914Z,30.40
2022-08-10T11:24:55.834Z,30.30
2022-08-10T11:27:48.767Z,30.20
2022-08-10T11:30:58.824Z,30.20
2022-08-10T11:34:48.721Z,30.10
2022-08-10T11:37:16.003Z,30.10
2022-08-10T11:40:07.978Z,30.10
2022-08-10T11:43:21.188Z,30.00
2022-08-10T11:46:28.730Z,29.90
2022-08-10T11:49:22.837Z,29.80
2022-08-10T11:52:16.854Z,29.80
2022-08-10T11:55:00.915Z,29.70
2022-08-10T11:57:55.482Z,29.70
2022-08-10T12:00:40.898Z,29.60
2022-08-10T12:03:31.351Z,29.50
2022-08-10T12:06:52.038Z,29.50
2022-08-10T12:10:10.780Z,29.40
2022-08-10T12:12:33.847Z,29.30
2022-08-10T12:15:24.973Z,29.30
2022-08-10T12:18:20.850Z,29.20
2022-08-10T12:21:08.182Z,29.20
2022-08-10T12:24:06.874Z,29.10
2022-08-10T12:26:47.295Z,29.10
2022-08-10T12:29:43.843Z,29.00
2022-08-10T12:32:38.042Z,28.90
2022-08-10T12:35:40.130Z,28.90
2022-08-10T12:38:36.868Z,28.80
2022-08-10T12:41:44.397Z,28.80
2022-08-10T12:44:41.916Z,28.70
2022-08-10T12:47:27.939Z,28.70
2022-08-10T12:50:32.831Z,28.60
2022-08-10T12:53:21.912Z,28.60
2022-08-10T12:56:11.847Z,28.60
2022-08-10T12:59:00.272Z,28.50
2022-08-10T13:02:06.793Z,28.50
2022-08-10T13:05:05.861Z,28.40
2022-08-10T13:08:26.533Z,28.40
2022-08-10T13:12:15.619Z,28.30
2022-08-10T13:14:34.864Z,28.20
2022-08-10T13:17:21.389Z,28.20
2022-08-10T13:20:17.863Z,28.10
2022-08-10T13:23:02.872Z,28.00
2022-08-10T13:25:52.877Z,28.00
2022-08-10T13:28:45.764Z,27.90
2022-08-10T13:32:08.960Z,27.80
2022-08-10T13:34:42.676Z,27.80
2022-08-10T13:37:35.886Z,27.70
2022-08-10T13:40:21.075Z,27.70
2022-08-10T13:43:10.897Z,27.60
2022-08-10T13:45:52.538Z,27.60
2022-08-10T13:48:42.886Z,27.50
2022-08-10T13:51:53.823Z,27.50
2022-08-10T13:54:47.858Z,27.40
2022-08-10T13:57:47.538Z,27.40
2022-08-10T14:00:34.050Z,27.30
2022-08-10T14:03:31.877Z,27.30
2022-08-10T14:06:21.869Z,27.30
2022-08-10T14:09:14.026Z,27.30
2022-08-10T14:12:02.869Z,27.30
2022-08-10T14:14:52.809Z,27.30
2022-08-10T14:17:39.230Z,27.30
2022-08-10T14:20:30.880Z,27.30
2022-08-10T14:23:13.533Z,27.20
2022-08-10T14:26:16.887Z,27.20
2022-08-10T14:29:06.994Z,27.10
2022-08-10T14:32:01.455Z,27.10
2022-08-10T14:36:16.375Z,27.10
2022-08-10T14:38:21.880Z,27.00
2022-08-10T14:42:02.882Z,27.00
2022-08-10T14:44:22.947Z,26.90
2022-08-10T14:47:52.990Z,26.90
2022-08-10T14:50:11.941Z,26.80
2022-08-10T14:53:01.898Z,26.80
2022-08-10T14:55:58.529Z,26.80
2022-08-10T14:59:07.127Z,26.70
2022-08-10T15:02:00.159Z,26.70
2022-08-10T15:05:11.894Z,26.70
2022-08-10T15:08:00.060Z,26.60
2022-08-10T15:10:39.884Z,26.60
2022-08-10T15:13:34.398Z,26.60
2022-08-10T15:16:22.889Z,26.60
2022-08-10T15:20:01.113Z,26.60
2022-08-10T15:22:36.538Z,26.50
2022-08-10T15:25:24.695Z,26.50
2022-08-10T15:28:20.897Z,26.50
2022-08-10T15:31:09.946Z,26.50
2022-08-10T15:34:14.903Z,26.50
2022-08-10T15:37:36.801Z,26.50
2022-08-10T15:40:32.478Z,26.40
2022-08-10T15:43:20.784Z,26.40
2022-08-10T15:46:17.102Z,26.40
2022-08-10T15:49:11.897Z,26.40
2022-08-10T15:52:10.914Z,26.40
2022-08-10T15:55:03.901Z,26.40
2022-08-10T15:58:14.940Z,26.30
2022-08-10T16:02:14.206Z,26.30
2022-08-10T16:04:31.582Z,26.30
2022-08-10T16:07:22.920Z,26.30
2022-08-10T16:10:38.563Z,26.30
2022-08-10T16:13:50.932Z,26.30
2022-08-10T16:16:31.893Z,26.30
2022-08-10T16:19:24.390Z,26.30
2022-08-10T16:22:36.189Z,26.20
2022-08-10T16:25:20.915Z,26.20
2022-08-10T16:28:20.048Z,26.20
2022-08-10T16:31:14.933Z,26.20
2022-08-10T16:33:59.973Z,26.20
2022-08-10T16:36:56.899Z,26.20
2022-08-10T16:39:59.390Z,26.20
2022-08-10T16:42:53.901Z,26.20
2022-08-10T16:46:01.909Z,26.20
2022-08-10T16:48:51.929Z,26.20
2022-08-10T16:51:33.013Z,26.10
2022-08-10T16:54:27.777Z,26.10
2022-08-10T16:57:10.973Z,26.10
2022-08-10T17:00:00.910Z,26.10
2022-08-10T17:02:41.982Z,26.10
2022-08-10T17:06:10.235Z,26.10
2022-08-10T17:08:38.908Z,26.10
2022-08-10T17:11:48.926Z,26.10
2022-08-10T17:14:36.959Z,26.10
2022-08-10T17:17:25.928Z,26.10
2022-08-10T17:20:31.140Z,26.10
2022-08-10T17:23:26.924Z,26.10
2022-08-10T17:26:27.004Z,26.10
2022-08-10T17:29:59.199Z,26.10
2022-08-10T17:32:45.194Z,26.10
2022-08-10T17:35:31.953Z,26.10
2022-08-10T17:38:28.942Z,26.10
2022-08-10T17:41:19.957Z,26.10
2022-08-10T17:44:10.920Z,26.00
2022-08-10T17:46:51.985Z,26.00
2022-08-10T17:49:41.933Z,26.00
2022-08-10T17:52:27.985Z,26.00
2022-08-10T17:55:16.919Z,26.00
2022-08-10T17:58:04.940Z,26.00
2022-08-10T18:00:56.100Z,26.00
2022-08-10T18:03:49.934Z,26.00
2022-08-10T18:06:30.976Z,26.00
2022-08-10T18:09:30.932Z,26.00
2022-08-10T18:12:40.938Z,26.00
2022-08-10T18:15:31.949Z,26.00
2022-08-10T18:18:20.753Z,26.00
2022-08-10T18:21:14.913Z,26.00
2022-08-10T18:24:02.935Z,26.00
2022-08-10T18:26:53.987Z,26.00
2022-08-10T18:29:36.947Z,26.00
2022-08-10T18:32:21.226Z,26.00
2022-08-10T18:35:13.948Z,26.00
2022-08-10T18:38:03.950Z,25.90
2022-08-10T18:40:46.966Z,25.90
2022-08-10T18:44:10.252Z,25.90
2022-08-10T18:46:49.980Z,25.90
2022-08-10T18:49:45.948Z,25.90
2022-08-10T18:52:35.930Z,25.90
2022-08-10T18:56:09.831Z,25.90
2022-08-10T18:58:46.932Z,25.90
2022-08-10T19:01:57.951Z,25.90
2022-08-10T19:05:31.169Z,25.90
2022-08-10T19:08:48.695Z,25.80
2022-08-10T19:11:53.939Z,25.80
2022-08-10T19:14:52.038Z,25.80
2022-08-10T19:18:03.772Z,25.80
2022-08-10T19:21:08.956Z,25.80
2022-08-10T19:24:11.073Z,25.80
2022-08-10T19:27:21.960Z,25.80
2022-08-10T19:30:22.951Z,25.80
2022-08-10T19:33:14.970Z,25.70
2022-08-10T19:36:14.949Z,25.70
2022-08-10T19:39:17.900Z,25.70
2022-08-10T19:42:12.300Z,25.70
2022-08-10T19:45:01.011Z,25.70
2022-08-10T19:47:57.950Z,25.70
2022-08-10T19:50:49.986Z,25.60
2022-08-10T19:53:56.964Z,25.60
2022-08-10T19:56:56.036Z,25.60
2022-08-10T20:00:17.011Z,25.60
2022-08-10T20:03:22.037Z,25.60
2022-08-10T20:06:25.981Z,25.60
2022-08-10T20:09:26.014Z,25.60
2022-08-10T20:12:16.939Z,25.60
2022-08-10T20:15:25.957Z,25.60
2022-08-10T20:18:14.271Z,25.60
2022-08-10T20:21:41.966Z,25.60
2022-08-10T20:24:55.950Z,25.50
2022-08-10T20:28:13.009Z,25.50
2022-08-10T20:31:17.064Z,25.50
2022-08-10T20:34:11.963Z,25.50
2022-08-10T20:36:52.423Z,25.50
2022-08-10T20:40:09.961Z,25.50
2022-08-10T20:43:23.299Z,25.50
2022-08-10T20:46:16.962Z,25.50
2022-08-10T20:49:09.031Z,25.50
2022-08-10T20:52:05.978Z,25.50
2022-08-10T20:54:58.954Z,25.50
2022-08-10T20:58:11.459Z,25.50
2022-08-10T21:01:17.300Z,25.50
2022-08-10T21:04:29.960Z,25.50
2022-08-10T21:08:01.665Z,25.40
2022-08-10T21:11:13.269Z,25.50
2022-08-10T21:14:04.033Z,25.40
2022-08-10T21:17:04.961Z,25.40
2022-08-10T21:20:13.333Z,25.40
2022-08-10T21:23:05.308Z,25.40
2022-08-10T21:26:11.107Z,25.40
2022-08-10T21:29:21.295Z,25.40
2022-08-10T21:32:25.982Z,25.40
2022-08-10T21:35:37.733Z,25.40
2022-08-10T21:38:29.493Z,25.40
2022-08-10T21:41:57.570Z,25.40
2022-08-10T21:45:59.519Z,25.40
2022-08-10T21:49:23.006Z,25.40
2022-08-10T21:52:38.687Z,25.40
2022-08-10T21:55:57.345Z,25.40
2022-08-10T21:59:34.816Z,25.30
2022-08-10T22:02:36.533Z,25.40
2022-08-10T22:05:49.973Z,25.30
2022-08-10T22:09:14.198Z,25.30
2022-08-10T22:12:31.215Z,25.30
2022-08-10T22:19:14.518Z,25.30
2022-08-10T22:22:33.835Z,25.30
2022-08-10T22:26:00.218Z,25.30
2022-08-10T22:29:19.994Z,25.30
2022-08-10T22:31:27.296Z,25.30
2022-08-10T22:32:42.992Z,25.30
2022-08-10T22:36:22.938Z,25.30
2022-08-10T22:40:11.407Z,25.30
2022-08-10T22:43:12.144Z,25.30
2022-08-10T22:46:20.976Z,25.20
2022-08-10T22:49:01.322Z,25.20
2022-08-10T22:52:02.004Z,25.20
2022-08-10T22:55:18.802Z,25.20
2022-08-10T22:58:23.977Z,25.30
2022-08-10T23:01:11.384Z,25.20
2022-08-10T23:04:00.998Z,25.20
2022-08-10T23:06:42.037Z,25.20
2022-08-10T23:09:31.989Z,25.20
2022-08-10T23:12:25.989Z,25.20
2022-08-10T23:15:40.000Z,25.20
2022-08-10T23:18:59.611Z,25.20
2022-08-10T23:22:13.989Z,25.20
2022-08-10T23:24:59.041Z,25.20
2022-08-10T23:27:48.000Z,25.20
2022-08-10T23:30:51.360Z,25.20
2022-08-10T23:33:39.966Z,25.10
2022-08-10T23:36:34.993Z,25.20
2022-08-10T23:39:25.919Z,25.10
2022-08-10T23:42:18.995Z,25.20
2022-08-10T23:45:01.647Z,25.10
2022-08-10T23:47:55.993Z,25.10
2022-08-10T23:50:43.998Z,25.10
2022-08-10T23:53:48.038Z,25.10
2022-08-10T23:56:34.987Z,25.10
2022-08-10T23:59:21.114Z,25.10
